Time;durP1;ratioP1;P1;durP2;ratioP2;P2;SDS_P1;SDS_P2;PMS_P1;PMS_P2;Temp;Humidity;BMP_temperature;BMP_pressure;BME280_temperature;BME280_humidity;BME280_pressure;Samples;Min_cycle;Max_cycle;Signal;HPM_P1;HPM_P2
2022/09/27 00:01:00;;;;;;;38.10;24.97;;;10.70;1.00;;;;;;4976852;28;20724;-60
2022/09/27 00:03:28;;;;;;;39.53;24.43;;;10.80;90.50;;;;;;4990130;28;20207;-60
2022/09/27 00:06:36;;;;;;;33.63;22.30;;;10.80;90.90;;;;;;4989072;28;20672;-60
2022/09/27 00:09:07;;;;;;;32.23;21.30;;;10.80;99.90;;;;;;4988447;28;20216;-60
2022/09/27 00:11:38;;;;;;;30.97;21.83;;;10.80;99.90;;;;;;4966680;28;20217;-60
2022/09/27 00:14:06;;;;;;;22.67;13.60;;;10.80;99.90;;;;;;4972391;28;20691;-61
2022/09/27 00:16:36;;;;;;;14.90;11.10;;;10.80;99.90;;;;;;4990086;28;20797;-60
2022/09/27 00:19:10;;;;;;;13.40;9.87;;;10.70;99.90;;;;;;4971503;28;20236;-60
2022/09/27 00:21:37;;;;;;;14.23;9.07;;;10.70;99.90;;;;;;4986949;28;20317;-59
2022/09/27 00:24:04;;;;;;;13.93;8.73;;;10.60;1.00;;;;;;4990308;28;20236;-60
2022/09/27 00:26:31;;;;;;;10.93;7.83;;;10.60;1.00;;;;;;4972301;28;20198;-60
2022/09/27 00:28:58;;;;;;;22.73;7.70;;;10.60;1.00;;;;;;5006816;28;20212;-60
2022/09/27 00:31:28;;;;;;;12.80;7.67;;;10.50;99.90;;;;;;4986486;28;20205;-60
2022/09/27 00:33:58;;;;;;;15.80;12.23;;;10.50;99.90;;;;;;4970479;28;20198;-59
2022/09/27 00:36:27;;;;;;;13.73;10.73;;;10.60;1.00;;;;;;5005370;28;20205;-60
2022/09/27 00:38:55;;;;;;;10.50;7.57;;;10.60;1.00;;;;;;4990313;28;20704;-59
2022/09/27 00:41:28;;;;;;;12.50;8.37;;;10.60;99.90;;;;;;4977734;28;20673;-60
2022/09/27 00:43:58;;;;;;;14.13;8.27;;;10.60;99.90;;;;;;4989266;28;20205;-59
2022/09/27 00:46:46;;;;;;;9.23;7.30;;;10.60;99.90;;;;;;4987322;28;20293;-59
2022/09/27 00:49:22;;;;;;;15.87;7.77;;;10.60;31.20;;;;;;4988196;28;20217;-59
2022/09/27 00:51:56;;;;;;;9.53;6.53;;;10.60;1.00;;;;;;5002914;28;20248;-60
2022/09/27 00:54:27;;;;;;;8.53;6.00;;;10.60;1.00;;;;;;5004501;28;20194;-59
2022/09/27 00:56:55;;;;;;;12.40;6.57;;;10.60;1.00;;;;;;4979637;28;20278;-59
2022/09/27 00:59:45;;;;;;;11.00;7.17;;;10.60;1.00;;;;;;4969862;28;20744;-60
2022/09/27 01:02:13;;;;;;;15.47;6.47;;;10.60;1.00;;;;;;4988245;28;20763;-60
2022/09/27 01:04:41;;;;;;;10.23;5.80;;;10.60;1.00;;;;;;4989744;28;20205;-59
2022/09/27 01:07:08;;;;;;;8.67;5.50;;;10.60;1.00;;;;;;4986481;28;20194;-59
2022/09/27 01:09:36;;;;;;;14.23;5.10;;;10.60;1.00;;;;;;4988799;28;20194;-60
2022/09/27 01:12:26;;;;;;;10.77;5.03;;;10.60;1.00;;;;;;4980613;28;20808;-60
2022/09/27 01:15:15;;;;;;;8.20;3.83;;;10.50;1.00;;;;;;4990069;28;20613;-60
2022/09/27 01:17:59;;;;;;;8.70;4.07;;;10.50;1.00;;;;;;4971444;28;20237;-60
2022/09/27 01:20:54;;;;;;;8.20;3.80;;;10.50;1.00;;;;;;4988197;28;20577;-60
2022/09/27 01:23:30;;;;;;;10.87;4.53;;;10.50;1.00;;;;;;5002900;28;20197;-60
2022/09/27 01:26:39;;;;;;;11.83;3.60;;;10.50;1.00;;;;;;5001366;28;20208;-59
2022/09/27 01:29:23;;;;;;;7.27;3.40;;;10.40;1.00;;;;;;4974049;28;20677;-59
2022/09/27 01:31:50;;;;;;;7.97;3.53;;;10.50;1.00;;;;;;5003053;28;20292;-60
2022/09/27 01:34:47;;;;;;;6.47;3.47;;;10.40;1.00;;;;;;5003370;28;20662;-60
2022/09/27 01:37:29;;;;;;;11.03;4.40;;;10.40;1.00;;;;;;4986658;28;20305;-60
2022/09/27 01:40:23;;;;;;;10.30;3.57;;;10.50;1.00;;;;;;4988958;28;20645;-61
2022/09/27 01:43:46;;;;;;;8.23;3.20;;;10.40;1.00;;;;;;4985429;28;20208;-60
2022/09/27 01:46:26;;;;;;;8.23;3.00;;;10.40;99.90;;;;;;5002403;28;20208;-60
2022/09/27 01:49:21;;;;;;;10.07;2.97;;;10.40;99.90;;;;;;5003153;28;20202;-59
2022/09/27 01:51:54;;;;;;;10.83;3.97;;;10.40;1.00;;;;;;4979079;28;20211;-60
2022/09/27 01:54:30;;;;;;;11.20;3.30;;;10.40;1.00;;;;;;4980691;28;20251;-60
2022/09/27 01:57:01;;;;;;;11.33;3.20;;;10.40;1.00;;;;;;4988696;28;20201;-61
2022/09/27 01:59:49;;;;;;;10.57;3.43;;;10.30;1.00;;;;;;4988284;28;20188;-60
2022/09/27 02:03:07;;;;;;;9.83;3.27;;;10.30;1.00;;;;;;4986934;28;20233;-60
2022/09/27 02:05:39;;;;;;;6.17;2.97;;;10.30;1.00;;;;;;4987532;28;20301;-60
2022/09/27 02:08:41;;;;;;;9.67;3.23;;;10.30;1.00;;;;;;4944511;28;20210;-60
2022/09/27 02:11:21;;;;;;;4.57;3.30;;;10.30;1.00;;;;;;4974595;28;20201;-60
2022/09/27 02:14:22;;;;;;;8.30;3.27;;;10.30;1.00;;;;;;4986680;28;20243;-60
2022/09/27 02:17:04;;;;;;;6.83;3.60;;;10.20;99.90;;;;;;4964336;28;20226;-60
2022/09/27 02:19:56;;;;;;;13.07;3.60;;;10.20;99.90;;;;;;4985187;28;20703;-60
2022/09/27 02:22:28;;;;;;;6.97;3.33;;;10.20;82.10;;;;;;4988344;28;20202;-60
2022/09/27 02:25:11;;;;;;;8.23;3.50;;;10.20;59.60;;;;;;4983058;28;20212;-60
2022/09/27 02:27:54;;;;;;;11.63;4.10;;;10.10;1.00;;;;;;4963580;28;20207;-61
2022/09/27 02:30:22;;;;;;;8.33;3.83;;;10.20;20.80;;;;;;4985600;28;20205;-60
2022/09/27 02:32:56;;;;;;;9.90;4.00;;;10.20;1.00;;;;;;5004110;28;20227;-60
2022/09/27 02:35:34;;;;;;;8.03;3.97;;;10.20;1.00;;;;;;4963331;28;20249;-61
2022/09/27 02:38:03;;;;;;;10.67;3.50;;;10.20;1.00;;;;;;4986114;28;20196;-59
2022/09/27 02:40:33;;;;;;;7.90;3.30;;;10.20;1.00;;;;;;4985381;28;20198;-60
2022/09/27 02:43:04;;;;;;;11.00;3.47;;;10.10;1.00;;;;;;5002558;28;20205;-60
2022/09/27 02:45:44;;;;;;;9.17;3.50;;;10.10;1.00;;;;;;4969044;28;20213;-62
2022/09/27 02:48:20;;;;;;;8.37;3.40;;;10.10;1.00;;;;;;4978473;28;20208;-60
2022/09/27 02:51:00;;;;;;;7.50;3.43;;;10.10;1.00;;;;;;4969361;28;20236;-60
2022/09/27 02:53:43;;;;;;;6.33;4.07;;;10.10;1.00;;;;;;4964448;28;20751;-60
2022/09/27 02:56:53;;;;;;;5.87;3.07;;;10.10;99.90;;;;;;4980729;28;20692;-59
2022/09/27 02:59:59;;;;;;;8.57;3.40;;;10.10;1.00;;;;;;4988272;28;20412;-59
2022/09/27 03:02:50;;;;;;;5.77;3.00;;;10.10;1.00;;;;;;4984538;28;20200;-59
2022/09/27 03:05:45;;;;;;;7.37;2.97;;;10.10;1.00;;;;;;4985783;28;20304;-62
2022/09/27 03:08:13;;;;;;;7.10;3.43;;;10.10;1.00;;;;;;4968744;28;20308;-61
2022/09/27 03:10:40;;;;;;;3.83;2.43;;;10.00;1.00;;;;;;4983095;28;20205;-63
2022/09/27 03:13:07;;;;;;;6.97;2.90;;;10.00;1.00;;;;;;4981863;28;20217;-63
2022/09/27 03:15:35;;;;;;;5.53;2.93;;;10.00;1.00;;;;;;4963359;28;20203;-62
2022/09/27 03:18:02;;;;;;;6.93;2.90;;;10.00;1.00;;;;;;4982041;28;20232;-62
2022/09/27 03:20:48;;;;;;;7.67;3.10;;;10.00;1.00;;;;;;4999225;28;20196;-62
2022/09/27 03:23:19;;;;;;;5.60;3.17;;;10.00;99.90;;;;;;4984416;28;20201;-63
2022/09/27 03:25:47;;;;;;;5.17;3.00;;;10.00;1.00;;;;;;4970872;28;20717;-63
2022/09/27 03:28:15;;;;;;;9.00;3.47;;;10.00;99.90;;;;;;4986377;28;20260;-63
2022/09/27 03:30:45;;;;;;;5.40;3.43;;;10.00;99.90;;;;;;4970105;28;20214;-61
2022/09/27 03:33:22;;;;;;;8.00;3.40;;;10.00;99.90;;;;;;4959841;28;20244;-62
2022/09/27 03:35:55;;;;;;;8.63;3.47;;;10.00;99.90;;;;;;4968399;28;20690;-61
2022/09/27 03:38:22;;;;;;;7.40;3.67;;;10.00;99.90;;;;;;4968351;28;20256;-61
2022/09/27 03:40:50;;;;;;;4.37;3.10;;;10.00;99.90;;;;;;4968867;28;20590;-63
2022/09/27 03:43:17;;;;;;;6.77;3.70;;;10.00;99.90;;;;;;4970516;28;20249;-61
2022/09/27 03:45:46;;;;;;;7.93;3.63;;;9.90;99.90;;;;;;4947398;28;20221;-63
2022/09/27 03:48:13;;;;;;;5.83;3.60;;;9.90;99.90;;;;;;4986435;28;20679;-61
2022/09/27 03:50:40;;;;;;;6.00;3.43;;;9.90;99.90;;;;;;4986390;28;20196;-62
2022/09/27 03:53:07;;;;;;;6.37;3.53;;;10.00;99.90;;;;;;4986481;28;20217;-61
2022/09/27 03:55:34;;;;;;;10.07;4.07;;;10.00;19.70;;;;;;4982931;28;20197;-61
2022/09/27 03:58:01;;;;;;;6.47;3.60;;;10.00;1.00;;;;;;4969681;28;20201;-63
2022/09/27 04:00:31;;;;;;;7.37;4.00;;;10.00;1.00;;;;;;4970511;28;20253;-60
2022/09/27 04:03:01;;;;;;;7.77;3.73;;;9.90;1.00;;;;;;5001723;28;20298;-63
2022/09/27 04:05:50;;;;;;;6.83;3.60;;;9.80;1.00;;;;;;4972954;28;20332;-62
2022/09/27 04:08:21;;;;;;;7.97;3.50;;;9.80;1.00;;;;;;5001514;28;20252;-63
2022/09/27 04:10:49;;;;;;;11.77;3.43;;;9.70;1.00;;;;;;5001696;28;20216;-63
2022/09/27 04:13:16;;;;;;;6.70;3.83;;;9.60;99.90;;;;;;5002903;28;20684;-63
2022/09/27 04:15:51;;;;;;;9.37;3.40;;;9.60;99.90;;;;;;4984674;28;20201;-63
2022/09/27 04:18:57;;;;;;;6.60;4.43;;;9.50;99.90;;;;;;4965360;28;20296;-63
2022/09/27 04:21:46;;;;;;;8.67;4.23;;;9.60;1.00;;;;;;4955785;28;20202;-61
2022/09/27 04:24:14;;;;;;;7.53;3.93;;;9.50;1.00;;;;;;4943839;28;20294;-62
2022/09/27 04:26:52;;;;;;;7.53;4.60;;;9.50;1.00;;;;;;4965471;28;20198;-60
2022/09/27 04:29:24;;;;;;;14.27;4.87;;;9.60;1.00;;;;;;4972799;28;20190;-58
2022/09/27 04:31:53;;;;;;;10.60;7.27;;;9.60;1.00;;;;;;4949737;28;20191;-61
2022/09/27 04:37:21;;;;;;;13.60;6.10;;;9.60;1.00;;;;;;4950635;28;20198;-61
2022/09/27 04:39:52;;;;;;;13.07;5.90;;;9.60;1.00;;;;;;4954202;28;20195;-62
2022/09/27 04:42:19;;;;;;;12.57;7.07;;;9.60;1.00;;;;;;4967823;28;20217;-61
2022/09/27 04:44:46;;;;;;;14.63;8.13;;;9.70;1.00;;;;;;4945770;28;20195;-63
2022/09/27 04:47:17;;;;;;;12.90;8.70;;;9.70;1.00;;;;;;4945319;28;20202;-61
2022/09/27 04:49:44;;;;;;;16.17;7.40;;;9.70;99.90;;;;;;4961207;28;20293;-61
2022/09/27 04:52:11;;;;;;;19.40;12.77;;;9.80;99.90;;;;;;4987637;28;20230;-59
2022/09/27 04:54:38;;;;;;;10.00;5.47;;;9.70;99.90;;;;;;4970687;28;20214;-59
2022/09/27 04:57:11;;;;;;;11.10;5.43;;;9.70;99.90;;;;;;4952917;28;21982;-61
2022/09/27 04:59:41;;;;;;;9.57;4.67;;;9.60;99.90;;;;;;4955932;28;20697;-60
2022/09/27 05:02:10;;;;;;;8.07;4.60;;;9.50;99.90;;;;;;4962077;28;20603;-61
2022/09/27 05:04:58;;;;;;;8.40;4.63;;;9.40;99.90;;;;;;4965517;28;20602;-60
2022/09/27 05:07:34;;;;;;;7.17;4.60;;;9.40;99.90;;;;;;4954166;28;20654;-60
2022/09/27 05:10:07;;;;;;;10.17;4.83;;;9.50;99.90;;;;;;4985036;28;20700;-59
2022/09/27 05:12:35;;;;;;;5.50;4.77;;;9.50;99.90;;;;;;4969083;28;20254;-62
2022/09/27 05:15:06;;;;;;;9.73;5.73;;;9.50;99.90;;;;;;4968664;28;20574;-60
2022/09/27 05:17:40;;;;;;;12.97;6.50;;;9.50;99.90;;;;;;4988564;28;20226;-63
2022/09/27 05:20:26;;;;;;;9.87;7.27;;;9.50;99.90;;;;;;4995777;28;20295;-62
2022/09/27 05:22:58;;;;;;;12.03;6.77;;;9.60;47.80;;;;;;4989915;28;20206;-61
2022/09/27 05:25:30;;;;;;;13.20;6.13;;;9.60;5.20;;;;;;4970755;28;20206;-63
2022/09/27 05:27:57;;;;;;;14.00;7.00;;;9.50;1.00;;;;;;4975578;28;20205;-62
2022/09/27 05:30:26;;;;;;;11.40;6.67;;;9.40;1.00;;;;;;4979050;28;20781;-61
2022/09/27 05:33:06;;;;;;;11.70;6.47;;;9.40;1.00;;;;;;4977841;28;20228;-61
2022/09/27 05:35:46;;;;;;;9.30;6.27;;;9.30;23.60;;;;;;4989310;28;20201;-61
2022/09/27 05:38:13;;;;;;;13.80;6.87;;;9.40;83.30;;;;;;4967602;28;20245;-61
2022/09/27 05:40:46;;;;;;;11.63;6.80;;;9.40;1.00;;;;;;4983507;28;20217;-60
2022/09/27 05:43:14;;;;;;;10.90;6.20;;;9.40;99.90;;;;;;4970654;28;20727;-61
2022/09/27 05:45:43;;;;;;;14.43;7.47;;;9.40;1.00;;;;;;4991571;28;20280;-60
2022/09/27 05:48:13;;;;;;;18.13;7.47;;;9.40;1.00;;;;;;5005934;28;20241;-62
2022/09/27 05:51:03;;;;;;;9.53;7.10;;;9.50;1.00;;;;;;4973138;28;20212;-61
2022/09/27 05:53:32;;;;;;;9.03;6.93;;;9.50;1.00;;;;;;4975440;28;20609;-60
2022/09/27 05:56:05;;;;;;;10.97;7.07;;;9.50;1.00;;;;;;4997739;28;20193;-60
2022/09/27 05:58:57;;;;;;;14.43;7.50;;;9.50;1.00;;;;;;5006342;28;20766;-63
2022/09/27 06:01:28;;;;;;;13.40;9.00;;;9.60;1.00;;;;;;4957405;28;20197;-60
2022/09/27 06:04:19;;;;;;;13.27;10.10;;;9.60;1.00;;;;;;4948363;28;20201;-62
2022/09/27 06:07:04;;;;;;;18.30;11.30;;;9.60;1.00;;;;;;4979325;28;20197;-63
2022/09/27 06:09:31;;;;;;;16.97;10.87;;;9.60;1.00;;;;;;4988395;28;20201;-61
2022/09/27 06:11:58;;;;;;;19.13;10.07;;;9.70;1.00;;;;;;5001947;28;20222;-61
2022/09/27 06:14:26;;;;;;;19.00;9.80;;;9.80;1.00;;;;;;4983427;28;20214;-62
2022/09/27 06:17:06;;;;;;;18.17;10.40;;;10.10;99.90;;;;;;5000797;28;20620;-63
2022/09/27 06:19:36;;;;;;;15.70;10.33;;;10.40;1.00;;;;;;4965973;28;20197;-62
2022/09/27 06:22:03;;;;;;;24.17;9.77;;;10.50;99.90;;;;;;4968721;28;20764;-63
2022/09/27 06:24:56;;;;;;;13.23;9.00;;;10.40;99.90;;;;;;4983663;28;20212;-63
2022/09/27 06:27:26;;;;;;;17.73;9.97;;;10.30;99.90;;;;;;4999324;28;20206;-61
2022/09/27 06:30:04;;;;;;;18.47;11.83;;;10.30;1.00;;;;;;4988498;28;20220;-61
2022/09/27 06:32:43;;;;;;;15.90;12.77;;;10.20;1.00;;;;;;4983334;28;20209;-61
2022/09/27 06:35:24;;;;;;;18.93;14.87;;;10.30;1.00;;;;;;4971146;28;20292;-61
2022/09/27 06:37:52;;;;;;;19.10;16.60;;;10.40;1.00;;;;;;4985977;28;22086;-61
2022/09/27 06:40:21;;;;;;;23.43;20.73;;;10.40;1.00;;;;;;4971292;28;20214;-63
2022/09/27 06:43:09;;;;;;;24.43;20.93;;;10.40;99.90;;;;;;4975060;28;20562;-63
2022/09/27 06:46:03;;;;;;;25.50;19.20;;;10.50;99.90;;;;;;4985854;28;20213;-63
2022/09/27 06:48:49;;;;;;;25.03;18.30;;;10.50;99.90;;;;;;4985364;28;20201;-63
2022/09/27 06:51:18;;;;;;;26.40;17.67;;;10.70;1.00;;;;;;4967690;28;20538;-63
2022/09/27 06:53:47;;;;;;;20.83;14.67;;;10.70;1.00;;;;;;4970747;28;20217;-63
2022/09/27 06:56:14;;;;;;;18.17;13.60;;;10.90;1.00;;;;;;4952977;28;20558;-63
2022/09/27 07:01:43;;;;;;;13.90;12.13;;;11.30;99.90;;;;;;4987861;28;20194;-63
2022/09/27 07:04:25;;;;;;;19.83;13.00;;;11.20;99.90;;;;;;4985354;28;20674;-63
2022/09/27 07:07:01;;;;;;;15.73;11.60;;;11.30;99.90;;;;;;4987572;28;20284;-63
2022/09/27 07:09:32;;;;;;;19.77;13.23;;;11.20;99.90;;;;;;4967991;28;20206;-62
2022/09/27 07:12:00;;;;;;;17.63;13.83;;;11.30;99.90;;;;;;4979519;28;20221;-61
2022/09/27 07:14:27;;;;;;;12.07;10.87;;;12.90;1.00;;;;;;4984227;28;20214;-62
2022/09/27 07:16:54;;;;;;;13.97;10.00;;;14.10;99.90;;;;;;4983382;28;20596;-62
2022/09/27 07:19:23;;;;;;;14.57;10.80;;;13.90;1.00;;;;;;4948185;28;20633;-63
2022/09/27 07:21:51;;;;;;;15.33;12.03;;;13.50;1.00;;;;;;5000233;28;20248;-62
2022/09/27 07:24:18;;;;;;;22.23;12.10;;;13.60;1.00;;;;;;4978594;28;20210;-63
2022/09/27 07:26:48;;;;;;;16.30;11.07;;;13.40;1.00;;;;;;4960732;28;20205;-64
2022/09/27 07:29:17;;;;;;;13.87;11.90;;;13.00;1.00;;;;;;4967847;28;20297;-62
2022/09/27 07:31:45;;;;;;;17.60;12.83;;;12.50;99.90;;;;;;4995131;28;20213;-63
2022/09/27 07:34:12;;;;;;;19.07;14.20;;;12.00;99.90;;;;;;4984828;28;20217;-61
2022/09/27 07:36:39;;;;;;;18.03;13.03;;;11.80;1.00;;;;;;4973289;28;20190;-63
2022/09/27 07:39:08;;;;;;;17.90;13.40;;;11.60;1.00;;;;;;4984757;28;20201;-64
2022/09/27 07:41:35;;;;;;;21.27;12.77;;;11.60;1.00;;;;;;4975505;28;20205;-61
2022/09/27 07:44:04;;;;;;;16.60;11.80;;;11.40;1.00;;;;;;4969370;28;20221;-63
2022/09/27 07:46:34;;;;;;;16.40;11.17;;;11.20;1.00;;;;;;4985414;28;20204;-64
2022/09/27 07:49:16;;;;;;;17.13;10.60;;;11.10;1.00;;;;;;4949356;28;20205;-61
2022/09/27 07:52:00;;;;;;;17.90;11.23;;;11.00;1.00;;;;;;4968883;28;20272;-63
2022/09/27 07:54:36;;;;;;;12.17;10.60;;;11.00;1.00;;;;;;4969720;28;20668;-63
2022/09/27 07:57:22;;;;;;;13.23;9.00;;;11.00;1.00;;;;;;4985316;28;20296;-63
2022/09/27 07:59:51;;;;;;;12.17;9.80;;;11.00;1.00;;;;;;4961851;28;20208;-64
2022/09/27 08:02:20;;;;;;;14.37;10.43;;;11.00;40.50;;;;;;4962980;28;20197;-62
2022/09/27 08:04:49;;;;;;;14.47;10.43;;;11.00;1.00;;;;;;5002038;28;20202;-63
2022/09/27 08:07:16;;;;;;;16.17;10.03;;;11.00;1.00;;;;;;4969112;28;20565;-63
2022/09/27 08:09:47;;;;;;;12.07;8.50;;;10.90;1.00;;;;;;4968484;28;20236;-63
2022/09/27 08:12:15;;;;;;;12.27;8.07;;;10.90;1.00;;;;;;4998442;28;20346;-63
2022/09/27 08:14:43;;;;;;;14.10;8.43;;;11.00;1.00;;;;;;4973782;28;20595;-61
2022/09/27 08:17:16;;;;;;;15.13;7.60;;;11.20;1.00;;;;;;4969483;28;20231;-63
2022/09/27 08:20:05;;;;;;;7.17;5.50;;;12.20;99.90;;;;;;4973727;28;20710;-61
2022/09/27 08:22:50;;;;;;;6.57;4.60;;;13.20;1.00;;;;;;4999421;28;20572;-62
2022/09/27 08:25:27;;;;;;;8.97;4.47;;;13.40;1.00;;;;;;4995856;28;20197;-61
2022/09/27 08:28:26;;;;;;;5.43;3.58;;;13.30;1.00;;;;;;4956609;28;20221;-62
2022/09/27 08:31:16;;;;;;;6.57;3.60;;;13.90;1.00;;;;;;4982756;28;20216;-62
2022/09/27 08:33:47;;;;;;;9.33;3.13;;;13.80;99.90;;;;;;4996573;28;20220;-62
2022/09/27 08:36:14;;;;;;;7.50;3.30;;;13.80;1.00;;;;;;4990804;28;20204;-62
2022/09/27 08:38:42;;;;;;;5.63;3.23;;;14.10;99.90;;;;;;4991140;28;20193;-62
2022/09/27 08:41:41;;;;;;;6.80;3.77;;;14.50;99.90;;;;;;4965196;28;20240;-62
2022/09/27 08:44:11;;;;;;;7.60;4.47;;;14.30;99.90;;;;;;4973030;28;20277;-61
2022/09/27 08:47:09;;;;;;;5.40;3.63;;;14.90;99.90;;;;;;5003768;28;20249;-63
2022/09/27 08:49:55;;;;;;;5.10;3.70;;;18.00;1.00;;;;;;4972985;28;20257;-63
2022/09/27 08:52:40;;;;;;;7.13;3.70;;;16.40;1.00;;;;;;4972478;28;20264;-63
2022/09/27 08:55:50;;;;;;;8.82;3.95;;;16.30;65.10;;;;;;4983958;28;20296;-63
2022/09/27 08:58:32;;;;;;;6.53;3.95;;;16.20;1.00;;;;;;4972508;28;20249;-63
2022/09/27 09:01:10;;;;;;;7.70;4.55;;;16.30;1.00;;;;;;4982232;28;20616;-63
2022/09/27 09:03:48;;;;;;;4.88;4.25;;;17.10;1.00;;;;;;5006076;28;20209;-63
2022/09/27 09:06:21;;;;;;;6.70;4.63;;;16.00;1.00;;;;;;4987216;28;20198;-63
2022/09/27 09:09:28;;;;;;;11.75;5.68;;;15.20;60.60;;;;;;4977520;28;20201;-63
2022/09/27 09:12:45;;;;;;;9.35;5.00;;;14.50;99.90;;;;;;5002819;28;20320;-63
2022/09/27 09:15:53;;;;;;;6.70;5.10;;;13.60;99.90;;;;;;4987845;28;20213;-63
2022/09/27 09:18:43;;;;;;;6.67;5.40;;;13.00;99.90;;;;;;4970623;28;20237;-63
2022/09/27 09:21:34;;;;;;;9.27;5.67;;;12.70;1.00;;;;;;5003658;28;20194;-62
2022/09/27 09:24:27;;;;;;;6.23;5.13;;;12.50;1.00;;;;;;4963677;28;20631;-63
2022/09/27 09:27:01;;;;;;;6.70;5.73;;;12.30;1.00;;;;;;4982791;28;20537;-63
2022/09/27 09:29:50;;;;;;;8.33;4.43;;;12.50;1.00;;;;;;5004156;28;20198;-63
2022/09/27 09:32:20;;;;;;;8.63;3.80;;;13.90;99.90;;;;;;4972143;28;20673;-62
2022/09/27 09:34:55;;;;;;;6.50;4.27;;;14.20;78.70;;;;;;4979024;28;20216;-63
2022/09/27 09:37:44;;;;;;;7.37;4.70;;;13.80;99.90;;;;;;4972632;28;20205;-63
2022/09/27 09:40:32;;;;;;;4.90;3.50;;;13.30;99.90;;;;;;4989017;28;20204;-63
2022/09/27 09:43:24;;;;;;;5.80;3.97;;;13.10;99.90;;;;;;4988697;28;20255;-63
2022/09/27 09:46:16;;;;;;;6.30;4.40;;;12.70;99.90;;;;;;4972489;28;20226;-63
2022/09/27 09:48:50;;;;;;;5.90;4.00;;;12.40;99.90;;;;;;4942969;28;20201;-63
2022/09/27 09:51:24;;;;;;;5.50;4.17;;;12.20;99.90;;;;;;4981171;28;20209;-62
2022/09/27 09:53:58;;;;;;;6.70;4.50;;;12.00;1.00;;;;;;4972357;28;20689;-63
2022/09/27 09:56:34;;;;;;;6.77;4.60;;;11.90;1.00;;;;;;4988010;28;20600;-63
2022/09/27 09:59:10;;;;;;;8.07;4.60;;;11.90;1.00;;;;;;4989425;28;20181;-63
2022/09/27 10:01:42;;;;;;;7.30;4.97;;;11.80;1.00;;;;;;4964777;28;20197;-62
2022/09/27 10:04:17;;;;;;;5.00;4.60;;;11.80;1.00;;;;;;4969445;28;20212;-62
2022/09/27 10:06:45;;;;;;;8.43;5.53;;;12.00;1.00;;;;;;4971115;28;20291;-61
2022/09/27 10:09:21;;;;;;;7.73;5.50;;;12.00;1.00;;;;;;5004638;28;20237;-61
2022/09/27 10:12:09;;;;;;;6.00;4.97;;;12.10;1.00;;;;;;4944858;28;20233;-62
2022/09/27 10:14:36;;;;;;;10.63;8.20;;;12.40;1.00;;;;;;4984196;28;20225;-61
2022/09/27 10:17:13;;;;;;;13.43;11.53;;;12.70;1.00;;;;;;4987489;28;20240;-62
2022/09/27 10:19:41;;;;;;;6.70;6.00;;;12.80;1.00;;;;;;4971569;28;20197;-61
2022/09/27 10:22:31;;;;;;;6.60;5.00;;;12.60;99.90;;;;;;4963100;28;20208;-63
2022/09/27 10:25:07;;;;;;;7.60;5.27;;;12.20;99.90;;;;;;4971477;28;20244;-63
2022/09/27 10:28:03;;;;;;;6.03;4.60;;;11.90;1.00;;;;;;4983290;28;20220;-62
2022/09/27 10:30:34;;;;;;;4.67;4.10;;;11.80;1.00;;;;;;4986045;28;20201;-62
2022/09/27 10:33:17;;;;;;;7.03;5.03;;;11.60;1.00;;;;;;4977277;28;20201;-62
2022/09/27 10:35:59;;;;;;;5.73;4.87;;;11.80;1.00;;;;;;4986895;28;20613;-63
2022/09/27 10:38:35;;;;;;;6.03;3.97;;;12.20;1.00;;;;;;4986692;28;20209;-62
2022/09/27 10:41:35;;;;;;;6.33;3.77;;;12.50;99.90;;;;;;4970150;28;20285;-62
2022/09/27 10:44:15;;;;;;;5.07;3.20;;;12.80;99.90;;;;;;4969178;28;20259;-63
2022/09/27 10:46:48;;;;;;;4.10;3.17;;;13.20;99.90;;;;;;4986377;28;20205;-63
2022/09/27 10:49:35;;;;;;;4.23;2.33;;;14.40;23.20;;;;;;4987634;28;20198;-61
2022/09/27 10:52:17;;;;;;;7.67;4.30;;;14.90;1.00;;;;;;4960478;28;20211;-63
2022/09/27 10:54:58;;;;;;;4.35;2.80;;;15.90;1.00;;;;;;4951286;28;20213;-63
2022/09/27 10:57:27;;;;;;;5.50;4.03;;;16.40;1.00;;;;;;4971114;28;20781;-61
2022/09/27 10:59:58;;;;;;;3.97;2.70;;;15.70;1.00;;;;;;4979132;28;20300;-63
2022/09/27 11:02:33;;;;;;;5.50;3.10;;;14.50;1.00;;;;;;5004018;28;20197;-63
2022/09/27 11:05:13;;;;;;;4.43;3.70;;;13.70;78.80;;;;;;4985994;28;20213;-62
2022/09/27 11:07:49;;;;;;;4.20;3.77;;;13.10;94.80;;;;;;4967982;28;20881;-63
2022/09/27 11:10:37;;;;;;;8.00;5.17;;;13.10;99.90;;;;;;4971024;28;20236;-63
2022/09/27 11:13:11;;;;;;;4.50;3.40;;;12.90;99.90;;;;;;4986741;28;20221;-62
2022/09/27 11:16:14;;;;;;;6.00;3.77;;;13.10;99.90;;;;;;4997716;28;20335;-63
2022/09/27 11:19:00;;;;;;;7.13;3.90;;;13.60;30.10;;;;;;4983430;28;20196;-63
2022/09/27 11:21:52;;;;;;;11.57;6.17;;;13.70;30.20;;;;;;4950032;28;20564;-63
2022/09/27 11:24:48;;;;;;;3.57;2.50;;;13.70;1.60;;;;;;4966722;28;20202;-63
2022/09/27 11:27:48;;;;;;;8.03;4.20;;;13.40;1.80;;;;;;4967334;28;20213;-62
2022/09/27 11:30:22;;;;;;;4.73;3.70;;;12.90;88.20;;;;;;4982936;28;20653;-62
2022/09/27 11:33:24;;;;;;;5.83;3.70;;;12.80;55.30;;;;;;4962608;28;20214;-63
2022/09/27 11:36:03;;;;;;;3.67;2.47;;;13.10;55.00;;;;;;4964496;28;20214;-63
2022/09/27 11:38:42;;;;;;;3.80;2.63;;;12.90;52.30;;;;;;4967914;28;20827;-63
2022/09/27 11:41:35;;;;;;;4.87;2.97;;;12.80;99.90;;;;;;4967064;28;20203;-62
2022/09/27 11:44:20;;;;;;;6.77;4.73;;;12.60;99.90;;;;;;4969090;28;20203;-62
2022/09/27 11:47:08;;;;;;;7.07;3.10;;;12.50;99.90;;;;;;4958305;28;20210;-62
2022/09/27 11:50:09;;;;;;;6.70;4.03;;;12.30;99.90;;;;;;4941784;28;20213;-62
2022/09/27 11:53:14;;;;;;;7.03;3.97;;;12.00;99.90;;;;;;4963588;28;20202;-62
2022/09/27 11:56:00;;;;;;;7.43;4.73;;;12.20;99.90;;;;;;4949877;28;20641;-62
2022/09/27 11:58:36;;;;;;;4.33;3.27;;;12.20;99.90;;;;;;4948371;28;20222;-61
2022/09/27 12:01:15;;;;;;;6.47;3.30;;;12.20;99.90;;;;;;4977572;28;20329;-63
2022/09/27 12:03:48;;;;;;;6.23;3.17;;;12.30;99.90;;;;;;4965807;28;20217;-63
2022/09/27 12:06:35;;;;;;;4.47;2.23;;;12.30;99.90;;;;;;4962876;28;20221;-61
2022/09/27 12:09:10;;;;;;;2.73;2.13;;;12.50;99.90;;;;;;4942970;28;20198;-61
2022/09/27 12:11:41;;;;;;;3.27;2.57;;;13.00;99.90;;;;;;4947456;28;20281;-63
2022/09/27 12:14:21;;;;;;;3.57;2.33;;;13.70;57.20;;;;;;4944572;28;20253;-61
2022/09/27 12:16:55;;;;;;;5.10;3.60;;;13.50;49.70;;;;;;4968989;28;20236;-61
2022/09/27 12:19:27;;;;;;;4.17;3.67;;;13.30;99.90;;;;;;4969689;28;20204;-62
2022/09/27 12:22:17;;;;;;;5.13;4.00;;;13.00;99.90;;;;;;4976626;28;20821;-61
2022/09/27 12:25:04;;;;;;;3.60;3.10;;;13.00;99.90;;;;;;5000373;28;20658;-63
2022/09/27 12:28:15;;;;;;;3.77;2.67;;;13.70;93.70;;;;;;4952598;28;20201;-62
2022/09/27 12:30:47;;;;;;;4.37;3.03;;;13.90;16.30;;;;;;4963424;28;20297;-63
2022/09/27 12:33:52;;;;;;;4.10;2.83;;;13.60;44.10;;;;;;4967542;28;20204;-62
2022/09/27 12:36:23;;;;;;;6.47;3.23;;;13.20;93.40;;;;;;4985225;28;20328;-61
2022/09/27 12:39:37;;;;;;;6.67;4.10;;;12.80;99.90;;;;;;4985460;28;20194;-61
2022/09/27 12:42:24;;;;;;;4.73;3.43;;;12.60;99.90;;;;;;4950071;28;20206;-62
2022/09/27 12:44:57;;;;;;;3.60;2.60;;;12.70;99.90;;;;;;4978263;28;20194;-61
2022/09/27 12:47:52;;;;;;;7.50;3.13;;;12.30;99.90;;;;;;4968367;28;20229;-61
2022/09/27 12:51:01;;;;;;;3.80;2.90;;;12.40;1.00;;;;;;4966487;28;20638;-64
2022/09/27 12:53:40;;;;;;;6.17;2.87;;;12.50;1.00;;;;;;4923447;29;20206;-63
2022/09/27 12:56:37;;;;;;;3.97;3.20;;;12.20;1.00;;;;;;4980519;28;20268;-63
2022/09/27 12:59:16;;;;;;;8.23;3.53;;;12.20;1.00;;;;;;4982267;28;20564;-62
2022/09/27 13:01:51;;;;;;;5.50;3.53;;;12.50;1.00;;;;;;4982833;28;20209;-61
2022/09/27 13:04:47;;;;;;;4.87;3.10;;;13.40;1.00;;;;;;4978377;28;20202;-62
2022/09/27 13:07:36;;;;;;;4.30;2.87;;;14.10;99.90;;;;;;4965814;28;20221;-61
2022/09/27 13:10:12;;;;;;;3.37;2.60;;;14.10;99.90;;;;;;4984062;28;20205;-61
2022/09/27 13:12:47;;;;;;;4.17;2.83;;;14.20;99.90;;;;;;5002277;28;20251;-63
2022/09/27 13:15:21;;;;;;;4.47;3.23;;;13.90;99.90;;;;;;4987785;28;20730;-63
2022/09/27 13:17:50;;;;;;;7.07;3.63;;;14.10;99.90;;;;;;4962278;28;20232;-63
2022/09/27 13:20:41;;;;;;;4.77;2.90;;;14.00;99.90;;;;;;4974719;28;20205;-62
2022/09/27 13:23:50;;;;;;;4.70;2.60;;;13.80;99.90;;;;;;4970649;28;20767;-63
2022/09/27 13:26:47;;;;;;;2.50;2.07;;;13.60;99.90;;;;;;4966471;28;20612;-61
2022/09/27 13:29:30;;;;;;;4.10;2.43;;;13.10;99.90;;;;;;4950054;28;22324;-61
2022/09/27 13:32:13;;;;;;;3.93;2.80;;;12.80;99.90;;;;;;4970999;28;20211;-61
2022/09/27 13:35:23;;;;;;;5.37;3.43;;;12.90;99.90;;;;;;4970392;28;20236;-61
2022/09/27 13:37:58;;;;;;;6.70;2.10;;;12.90;99.90;;;;;;4969908;28;20208;-61
2022/09/27 13:40:38;;;;;;;3.73;2.30;;;12.90;99.90;;;;;;4968537;28;21012;-63
2022/09/27 13:44:04;;;;;;;6.57;3.13;;;12.80;99.90;;;;;;5001791;28;20288;-63
2022/09/27 13:46:52;;;;;;;5.17;3.13;;;12.60;99.90;;;;;;4969842;28;20238;-63
2022/09/27 13:49:31;;;;;;;4.27;2.40;;;12.50;99.90;;;;;;4986908;28;20771;-63
2022/09/27 13:52:24;;;;;;;2.63;1.50;;;12.80;99.90;;;;;;4990570;28;20685;-62
2022/09/27 13:55:41;;;;;;;3.70;2.13;;;13.00;99.90;;;;;;5003810;28;20232;-62